Rockford, IL (61109)

7:21 AM CDT on April 18, 2015 (GMT -0500)
MesoWest | | Change Station
CLOSE
Current Station
Personal Weather Station
Location: Rockford, IL
Elevation: 717 ft
Nearby Weather Stations

Elev 717 ft 42.18 °N, 89.02 °W | Updated 41 minutes ago

Mostly Cloudy
Mostly Cloudy
53 °F
Feels Like 53 °F
N
0
Wind Variable Wind from North
Gusts 1.0 mph

Today
High -- | Low -- °F
--% Chance of Precip.
Yesterday
High -- | Low -- °F
Precip. -- in
6:11 AM 7:40 PM
Waning Crescent, 0% visible
Pressure 30.06 in
Visibility 7.0 miles
Clouds Mostly Cloudy 8000 ft
Dew Point 49 °F
Humidity 86%
Rainfall in
Snow Depth Not available.
UV 0 out of 12
Pollen 11.40 out of 12
Air Quality Not available.
Flu Activity Regional
METAR KRFD 181154Z 00000KT 7SM BKN080 11/08 A3007 RMK AO2 SLP180 T01060083 10144 20094 53009

More Conditions Fewer Conditions

Pressure 30.06 in
Visibility 7.0 miles
Clouds Mostly Cloudy 8000 ft
Dew Point 49 °F
Humidity 86%
Rainfall in
Snow Depth Not available.
UV 0 out of 12
Pollen 11.40 out of 12
Air Quality Not available.
Flu Activity Regional
METAR KRFD 181154Z 00000KT 7SM BKN080 11/08 A3007 RMK AO2 SLP180 T01060083 10144 20094 53009

More Conditions Fewer Conditions

10-Day Weather Forecast

Almanac

Astronomy

Apr. 18, 2015 Rise Set
Actual Time
Civil Twilight
Nautical Twilight
Astronomical Twilight
Moon
Length of Visible Light
Length of Day
Tomorrow will be .
, % of the Moon is Illuminated

Today's Extremes

State Highs State Lows

Community

WunderPhotos

Upload Photos

1,814,375 photos uploaded!

WunderBlogs® & News

Nearby

Air Quality

  Air Quality AQ Index Pollutant
Not available.

Snow Depth

Station Depth Elevation

Earthquake Activity

City Distance Mag. Time & Date
Minimum magnitude displayed is 2.5.

Coastal Water Temperatures

Place Temperature

Stations

Nearby Weather Stations

Station Location Temp. Windchill Dew Point Humidity Wind Precip. Elev Updated Type